sensor_id;sensor_type;location;lat;lon;timestamp;temperature;humidity
20680;DHT22;10499;47.494;7.608;2022-07-18T00:01:29;19.90;76.50
20680;DHT22;10499;47.494;7.608;2022-07-18T00:03:54;19.90;77.60
20680;DHT22;10499;47.494;7.608;2022-07-18T00:06:20;19.90;76.70
20680;DHT22;10499;47.494;7.608;2022-07-18T00:08:45;19.90;76.90
20680;DHT22;10499;47.494;7.608;2022-07-18T00:11:11;19.80;77.30
20680;DHT22;10499;47.494;7.608;2022-07-18T00:13:37;19.70;77.60
20680;DHT22;10499;47.494;7.608;2022-07-18T00:16:03;19.70;78.10
20680;DHT22;10499;47.494;7.608;2022-07-18T00:18:29;19.60;77.00
20680;DHT22;10499;47.494;7.608;2022-07-18T00:20:54;19.60;76.40
20680;DHT22;10499;47.494;7.608;2022-07-18T00:23:20;19.60;75.50
20680;DHT22;10499;47.494;7.608;2022-07-18T00:25:46;19.70;75.50
20680;DHT22;10499;47.494;7.608;2022-07-18T00:28:11;19.60;75.50
20680;DHT22;10499;47.494;7.608;2022-07-18T00:30:38;19.60;76.40
20680;DHT22;10499;47.494;7.608;2022-07-18T00:33:04;19.60;76.10
20680;DHT22;10499;47.494;7.608;2022-07-18T00:35:29;19.60;77.30
20680;DHT22;10499;47.494;7.608;2022-07-18T00:37:55;19.60;78.50
20680;DHT22;10499;47.494;7.608;2022-07-18T00:40:21;19.40;79.50
20680;DHT22;10499;47.494;7.608;2022-07-18T00:42:46;19.30;79.70
20680;DHT22;10499;47.494;7.608;2022-07-18T00:45:12;19.20;80.00
20680;DHT22;10499;47.494;7.608;2022-07-18T00:47:39;19.20;80.80
20680;DHT22;10499;47.494;7.608;2022-07-18T00:50:05;19.20;80.30
20680;DHT22;10499;47.494;7.608;2022-07-18T00:52:32;19.20;80.40
20680;DHT22;10499;47.494;7.608;2022-07-18T00:54:58;19.10;80.40
20680;DHT22;10499;47.494;7.608;2022-07-18T00:57:24;19.10;80.80
20680;DHT22;10499;47.494;7.608;2022-07-18T00:59:50;19.00;81.40
20680;DHT22;10499;47.494;7.608;2022-07-18T01:02:36;19.00;81.50
20680;DHT22;10499;47.494;7.608;2022-07-18T01:05:03;18.90;82.00
20680;DHT22;10499;47.494;7.608;2022-07-18T01:07:28;18.90;82.10
20680;DHT22;10499;47.494;7.608;2022-07-18T01:09:54;18.80;82.70
20680;DHT22;10499;47.494;7.608;2022-07-18T01:12:19;18.80;82.90
20680;DHT22;10499;47.494;7.608;2022-07-18T01:14:46;18.80;83.00
20680;DHT22;10499;47.494;7.608;2022-07-18T01:17:17;18.70;83.00
20680;DHT22;10499;47.494;7.608;2022-07-18T01:19:44;18.70;83.30
20680;DHT22;10499;47.494;7.608;2022-07-18T01:22:10;18.70;83.50
20680;DHT22;10499;47.494;7.608;2022-07-18T01:24:36;18.60;83.50
20680;DHT22;10499;47.494;7.608;2022-07-18T01:27:02;18.60;83.50
20680;DHT22;10499;47.494;7.608;2022-07-18T01:29:28;18.50;84.00
20680;DHT22;10499;47.494;7.608;2022-07-18T01:31:54;18.50;84.70
20680;DHT22;10499;47.494;7.608;2022-07-18T01:34:23;18.40;84.70
20680;DHT22;10499;47.494;7.608;2022-07-18T01:36:49;18.30;84.60
20680;DHT22;10499;47.494;7.608;2022-07-18T01:39:14;18.30;84.60
20680;DHT22;10499;47.494;7.608;2022-07-18T01:41:40;18.30;84.70
20680;DHT22;10499;47.494;7.608;2022-07-18T01:44:06;18.20;85.00
20680;DHT22;10499;47.494;7.608;2022-07-18T01:46:32;18.20;85.40
20680;DHT22;10499;47.494;7.608;2022-07-18T01:48:58;18.20;85.60
20680;DHT22;10499;47.494;7.608;2022-07-18T01:51:23;18.20;85.20
20680;DHT22;10499;47.494;7.608;2022-07-18T01:53:57;18.10;84.90
20680;DHT22;10499;47.494;7.608;2022-07-18T01:56:25;18.20;85.40
20680;DHT22;10499;47.494;7.608;2022-07-18T01:58:50;18.10;84.20
20680;DHT22;10499;47.494;7.608;2022-07-18T02:01:16;18.10;84.60
20680;DHT22;10499;47.494;7.608;2022-07-18T02:03:41;18.10;84.90
20680;DHT22;10499;47.494;7.608;2022-07-18T02:06:07;18.10;85.40
20680;DHT22;10499;47.494;7.608;2022-07-18T02:08:33;18.00;85.60
20680;DHT22;10499;47.494;7.608;2022-07-18T02:10:58;18.00;85.30
20680;DHT22;10499;47.494;7.608;2022-07-18T02:13:24;17.90;85.60
20680;DHT22;10499;47.494;7.608;2022-07-18T02:15:50;17.90;85.50
20680;DHT22;10499;47.494;7.608;2022-07-18T02:18:16;17.90;85.90
20680;DHT22;10499;47.494;7.608;2022-07-18T02:20:42;17.80;86.70
20680;DHT22;10499;47.494;7.608;2022-07-18T02:23:08;17.80;87.10
20680;DHT22;10499;47.494;7.608;2022-07-18T02:25:34;17.70;86.40
20680;DHT22;10499;47.494;7.608;2022-07-18T02:28:00;17.70;86.40
20680;DHT22;10499;47.494;7.608;2022-07-18T02:30:26;17.80;86.50
20680;DHT22;10499;47.494;7.608;2022-07-18T02:32:51;17.80;86.70
20680;DHT22;10499;47.494;7.608;2022-07-18T02:35:17;17.80;86.80
20680;DHT22;10499;47.494;7.608;2022-07-18T02:37:43;17.80;87.30
20680;DHT22;10499;47.494;7.608;2022-07-18T02:40:10;17.70;87.60
20680;DHT22;10499;47.494;7.608;2022-07-18T02:42:37;17.60;88.30
20680;DHT22;10499;47.494;7.608;2022-07-18T02:45:04;17.60;88.80
20680;DHT22;10499;47.494;7.608;2022-07-18T02:47:30;17.50;89.00
20680;DHT22;10499;47.494;7.608;2022-07-18T02:49:56;17.50;89.00
20680;DHT22;10499;47.494;7.608;2022-07-18T02:52:21;17.40;88.90
20680;DHT22;10499;47.494;7.608;2022-07-18T02:54:47;17.40;89.00
20680;DHT22;10499;47.494;7.608;2022-07-18T02:57:13;17.40;89.50
20680;DHT22;10499;47.494;7.608;2022-07-18T02:59:38;17.30;89.70
20680;DHT22;10499;47.494;7.608;2022-07-18T03:02:05;17.20;89.90
20680;DHT22;10499;47.494;7.608;2022-07-18T03:04:31;17.20;89.50
20680;DHT22;10499;47.494;7.608;2022-07-18T03:06:57;17.10;90.20
20680;DHT22;10499;47.494;7.608;2022-07-18T03:09:23;17.10;89.70
20680;DHT22;10499;47.494;7.608;2022-07-18T03:11:53;17.10;89.80
20680;DHT22;10499;47.494;7.608;2022-07-18T03:14:19;17.00;89.90
20680;DHT22;10499;47.494;7.608;2022-07-18T03:16:45;16.90;90.00
20680;DHT22;10499;47.494;7.608;2022-07-18T03:19:10;17.00;90.10
20680;DHT22;10499;47.494;7.608;2022-07-18T03:21:36;16.90;90.10
20680;DHT22;10499;47.494;7.608;2022-07-18T03:24:02;16.90;90.10
20680;DHT22;10499;47.494;7.608;2022-07-18T03:26:27;17.00;90.00
20680;DHT22;10499;47.494;7.608;2022-07-18T03:28:53;17.00;90.00
20680;DHT22;10499;47.494;7.608;2022-07-18T03:31:19;16.90;89.70
20680;DHT22;10499;47.494;7.608;2022-07-18T03:33:45;17.00;89.70
20680;DHT22;10499;47.494;7.608;2022-07-18T03:36:10;17.00;89.30
20680;DHT22;10499;47.494;7.608;2022-07-18T03:38:36;17.00;89.80
20680;DHT22;10499;47.494;7.608;2022-07-18T03:41:03;17.00;90.10
20680;DHT22;10499;47.494;7.608;2022-07-18T03:43:29;17.00;90.20
20680;DHT22;10499;47.494;7.608;2022-07-18T03:45:54;16.90;90.40
20680;DHT22;10499;47.494;7.608;2022-07-18T03:48:20;17.00;90.50
20680;DHT22;10499;47.494;7.608;2022-07-18T03:50:46;17.00;90.50
20680;DHT22;10499;47.494;7.608;2022-07-18T03:53:11;17.00;90.40
20680;DHT22;10499;47.494;7.608;2022-07-18T03:55:37;17.00;90.70
20680;DHT22;10499;47.494;7.608;2022-07-18T03:58:02;16.90;90.70
20680;DHT22;10499;47.494;7.608;2022-07-18T04:00:28;16.90;90.60
20680;DHT22;10499;47.494;7.608;2022-07-18T04:02:54;16.90;90.70
20680;DHT22;10499;47.494;7.608;2022-07-18T04:05:19;16.90;90.70
20680;DHT22;10499;47.494;7.608;2022-07-18T04:07:45;16.80;90.80
20680;DHT22;10499;47.494;7.608;2022-07-18T04:10:11;16.80;90.80
20680;DHT22;10499;47.494;7.608;2022-07-18T04:12:51;16.90;90.80
20680;DHT22;10499;47.494;7.608;2022-07-18T04:15:18;16.80;90.70
20680;DHT22;10499;47.494;7.608;2022-07-18T04:17:44;16.80;90.70
20680;DHT22;10499;47.494;7.608;2022-07-18T04:20:11;16.90;90.60
20680;DHT22;10499;47.494;7.608;2022-07-18T04:22:51;16.90;90.60
20680;DHT22;10499;47.494;7.608;2022-07-18T04:25:18;16.90;90.90
20680;DHT22;10499;47.494;7.608;2022-07-18T04:27:44;16.90;90.60
20680;DHT22;10499;47.494;7.608;2022-07-18T04:30:10;17.00;90.80
20680;DHT22;10499;47.494;7.608;2022-07-18T04:32:37;17.00;90.80
20680;DHT22;10499;47.494;7.608;2022-07-18T04:35:03;17.10;90.70
20680;DHT22;10499;47.494;7.608;2022-07-18T04:37:30;17.10;90.70
20680;DHT22;10499;47.494;7.608;2022-07-18T04:39:59;17.10;90.70
20680;DHT22;10499;47.494;7.608;2022-07-18T04:42:25;17.20;90.80
20680;DHT22;10499;47.494;7.608;2022-07-18T04:44:51;17.20;90.70
20680;DHT22;10499;47.494;7.608;2022-07-18T04:47:17;17.30;90.50
20680;DHT22;10499;47.494;7.608;2022-07-18T04:49:42;17.40;90.50
20680;DHT22;10499;47.494;7.608;2022-07-18T04:52:08;17.40;90.40
20680;DHT22;10499;47.494;7.608;2022-07-18T04:54:34;17.50;90.30
20680;DHT22;10499;47.494;7.608;2022-07-18T04:57:00;17.50;90.30
20680;DHT22;10499;47.494;7.608;2022-07-18T04:59:25;17.60;90.20
20680;DHT22;10499;47.494;7.608;2022-07-18T05:01:51;17.70;90.20
20680;DHT22;10499;47.494;7.608;2022-07-18T05:04:16;17.70;90.10
20680;DHT22;10499;47.494;7.608;2022-07-18T05:06:42;17.80;90.20
20680;DHT22;10499;47.494;7.608;2022-07-18T05:09:08;17.80;88.90
20680;DHT22;10499;47.494;7.608;2022-07-18T05:11:34;17.90;87.70
20680;DHT22;10499;47.494;7.608;2022-07-18T05:13:59;18.00;87.20
20680;DHT22;10499;47.494;7.608;2022-07-18T05:16:25;18.10;86.30
20680;DHT22;10499;47.494;7.608;2022-07-18T05:18:51;18.20;86.30
20680;DHT22;10499;47.494;7.608;2022-07-18T05:21:16;18.40;86.00
20680;DHT22;10499;47.494;7.608;2022-07-18T05:23:42;18.50;86.70
20680;DHT22;10499;47.494;7.608;2022-07-18T05:26:08;18.60;86.30
20680;DHT22;10499;47.494;7.608;2022-07-18T05:28:33;18.70;86.30
20680;DHT22;10499;47.494;7.608;2022-07-18T05:30:59;18.80;84.90
20680;DHT22;10499;47.494;7.608;2022-07-18T05:33:25;18.90;84.30
20680;DHT22;10499;47.494;7.608;2022-07-18T05:35:51;19.00;83.60
20680;DHT22;10499;47.494;7.608;2022-07-18T05:38:16;19.10;82.80
20680;DHT22;10499;47.494;7.608;2022-07-18T05:40:42;19.20;81.00
20680;DHT22;10499;47.494;7.608;2022-07-18T05:43:08;19.40;79.90
20680;DHT22;10499;47.494;7.608;2022-07-18T05:45:34;19.50;79.30
20680;DHT22;10499;47.494;7.608;2022-07-18T05:47:59;19.60;79.00
20680;DHT22;10499;47.494;7.608;2022-07-18T05:50:25;19.70;79.40
20680;DHT22;10499;47.494;7.608;2022-07-18T05:52:51;19.80;78.50
20680;DHT22;10499;47.494;7.608;2022-07-18T05:55:17;19.80;78.30
20680;DHT22;10499;47.494;7.608;2022-07-18T05:57:43;19.90;76.90
20680;DHT22;10499;47.494;7.608;2022-07-18T06:00:11;20.00;76.80
20680;DHT22;10499;47.494;7.608;2022-07-18T06:02:37;20.00;76.60
20680;DHT22;10499;47.494;7.608;2022-07-18T06:05:05;20.10;76.00
20680;DHT22;10499;47.494;7.608;2022-07-18T06:07:31;20.20;75.60
20680;DHT22;10499;47.494;7.608;2022-07-18T06:09:57;20.30;75.20
20680;DHT22;10499;47.494;7.608;2022-07-18T06:12:23;20.40;74.40
20680;DHT22;10499;47.494;7.608;2022-07-18T06:14:49;20.60;74.00
20680;DHT22;10499;47.494;7.608;2022-07-18T06:17:14;20.70;73.30
20680;DHT22;10499;47.494;7.608;2022-07-18T06:19:40;20.80;72.20
20680;DHT22;10499;47.494;7.608;2022-07-18T06:22:07;20.90;71.50
20680;DHT22;10499;47.494;7.608;2022-07-18T06:24:33;20.90;71.00
20680;DHT22;10499;47.494;7.608;2022-07-18T06:26:58;20.90;70.70
20680;DHT22;10499;47.494;7.608;2022-07-18T06:29:24;20.90;70.20
20680;DHT22;10499;47.494;7.608;2022-07-18T06:31:49;21.00;71.10
20680;DHT22;10499;47.494;7.608;2022-07-18T06:34:15;21.10;70.50
20680;DHT22;10499;47.494;7.608;2022-07-18T06:36:41;21.30;69.80
20680;DHT22;10499;47.494;7.608;2022-07-18T06:39:06;21.40;69.50
20680;DHT22;10499;47.494;7.608;2022-07-18T06:41:37;21.50;69.50
20680;DHT22;10499;47.494;7.608;2022-07-18T06:44:03;21.60;69.20
20680;DHT22;10499;47.494;7.608;2022-07-18T06:46:29;21.70;69.10
20680;DHT22;10499;47.494;7.608;2022-07-18T06:48:55;21.80;68.40
20680;DHT22;10499;47.494;7.608;2022-07-18T06:51:20;21.90;68.10
20680;DHT22;10499;47.494;7.608;2022-07-18T06:53:46;22.00;67.60
20680;DHT22;10499;47.494;7.608;2022-07-18T06:56:11;22.10;67.90
20680;DHT22;10499;47.494;7.608;2022-07-18T06:58:37;22.20;66.50
20680;DHT22;10499;47.494;7.608;2022-07-18T07:01:03;22.30;66.30
20680;DHT22;10499;47.494;7.608;2022-07-18T07:03:29;22.40;65.80
20680;DHT22;10499;47.494;7.608;2022-07-18T07:05:54;22.50;65.50
20680;DHT22;10499;47.494;7.608;2022-07-18T07:08:20;22.60;65.40
20680;DHT22;10499;47.494;7.608;2022-07-18T07:10:46;22.70;65.70
20680;DHT22;10499;47.494;7.608;2022-07-18T07:13:11;22.70;64.90
20680;DHT22;10499;47.494;7.608;2022-07-18T07:15:42;22.80;64.50
20680;DHT22;10499;47.494;7.608;2022-07-18T07:18:08;22.90;64.80
20680;DHT22;10499;47.494;7.608;2022-07-18T07:20:34;23.00;63.80
20680;DHT22;10499;47.494;7.608;2022-07-18T07:23:00;23.10;63.10
20680;DHT22;10499;47.494;7.608;2022-07-18T07:25:30;23.20;62.80
20680;DHT22;10499;47.494;7.608;2022-07-18T07:27:56;23.30;62.10
20680;DHT22;10499;47.494;7.608;2022-07-18T07:30:21;23.40;62.60
20680;DHT22;10499;47.494;7.608;2022-07-18T07:32:47;23.50;63.20
20680;DHT22;10499;47.494;7.608;2022-07-18T07:35:14;23.60;63.20
20680;DHT22;10499;47.494;7.608;2022-07-18T07:37:42;23.70;63.50
20680;DHT22;10499;47.494;7.608;2022-07-18T07:40:09;23.90;64.20
20680;DHT22;10499;47.494;7.608;2022-07-18T07:42:35;24.00;64.00
20680;DHT22;10499;47.494;7.608;2022-07-18T07:45:01;24.10;63.90
20680;DHT22;10499;47.494;7.608;2022-07-18T07:47:26;24.20;64.10
20680;DHT22;10499;47.494;7.608;2022-07-18T07:49:54;24.40;64.40
20680;DHT22;10499;47.494;7.608;2022-07-18T07:52:20;24.50;64.10
20680;DHT22;10499;47.494;7.608;2022-07-18T07:54:48;24.60;63.40
20680;DHT22;10499;47.494;7.608;2022-07-18T07:57:14;24.70;63.00
20680;DHT22;10499;47.494;7.608;2022-07-18T07:59:39;24.80;63.30
20680;DHT22;10499;47.494;7.608;2022-07-18T08:02:05;24.90;62.00
20680;DHT22;10499;47.494;7.608;2022-07-18T08:04:31;25.00;62.20
20680;DHT22;10499;47.494;7.608;2022-07-18T08:06:56;25.00;61.50
20680;DHT22;10499;47.494;7.608;2022-07-18T08:09:22;25.10;62.00
20680;DHT22;10499;47.494;7.608;2022-07-18T08:11:48;25.20;60.30
20680;DHT22;10499;47.494;7.608;2022-07-18T08:14:13;25.40;59.90
20680;DHT22;10499;47.494;7.608;2022-07-18T08:16:39;25.50;59.60
20680;DHT22;10499;47.494;7.608;2022-07-18T08:19:04;25.60;59.30
20680;DHT22;10499;47.494;7.608;2022-07-18T08:21:30;25.70;59.00
20680;DHT22;10499;47.494;7.608;2022-07-18T08:23:56;25.90;59.00
20680;DHT22;10499;47.494;7.608;2022-07-18T08:26:21;25.90;57.50
20680;DHT22;10499;47.494;7.608;2022-07-18T08:28:47;26.10;58.20
20680;DHT22;10499;47.494;7.608;2022-07-18T08:31:18;26.10;57.40
20680;DHT22;10499;47.494;7.608;2022-07-18T08:33:45;26.20;57.80
20680;DHT22;10499;47.494;7.608;2022-07-18T08:36:11;26.30;57.70
20680;DHT22;10499;47.494;7.608;2022-07-18T08:38:37;26.40;57.10
20680;DHT22;10499;47.494;7.608;2022-07-18T08:41:03;26.50;56.10
20680;DHT22;10499;47.494;7.608;2022-07-18T08:43:29;26.50;55.90
20680;DHT22;10499;47.494;7.608;2022-07-18T08:46:00;26.60;55.90
20680;DHT22;10499;47.494;7.608;2022-07-18T08:48:26;26.70;56.70
20680;DHT22;10499;47.494;7.608;2022-07-18T08:50:52;26.80;55.20
20680;DHT22;10499;47.494;7.608;2022-07-18T08:53:19;26.90;55.20
20680;DHT22;10499;47.494;7.608;2022-07-18T08:55:45;27.00;54.90
20680;DHT22;10499;47.494;7.608;2022-07-18T08:58:12;27.10;55.20
20680;DHT22;10499;47.494;7.608;2022-07-18T09:00:40;27.20;54.40
20680;DHT22;10499;47.494;7.608;2022-07-18T09:03:06;27.30;54.00
20680;DHT22;10499;47.494;7.608;2022-07-18T09:05:34;27.40;54.30
20680;DHT22;10499;47.494;7.608;2022-07-18T09:08:16;27.50;53.60
20680;DHT22;10499;47.494;7.608;2022-07-18T09:13:23;27.90;52.40
20680;DHT22;10499;47.494;7.608;2022-07-18T09:18:35;28.30;52.10
20680;DHT22;10499;47.494;7.608;2022-07-18T09:21:04;28.70;51.00
20680;DHT22;10499;47.494;7.608;2022-07-18T09:23:32;29.90;50.10
20680;DHT22;10499;47.494;7.608;2022-07-18T09:25:58;32.50;47.10
20680;DHT22;10499;47.494;7.608;2022-07-18T09:28:28;35.70;41.60
20680;DHT22;10499;47.494;7.608;2022-07-18T09:30:55;38.60;36.50
20680;DHT22;10499;47.494;7.608;2022-07-18T09:33:21;40.70;33.30
20680;DHT22;10499;47.494;7.608;2022-07-18T09:35:51;42.70;30.70
20680;DHT22;10499;47.494;7.608;2022-07-18T09:38:20;44.40;28.80
20680;DHT22;10499;47.494;7.608;2022-07-18T09:40:51;46.20;26.40
20680;DHT22;10499;47.494;7.608;2022-07-18T09:43:19;46.60;26.50
20680;DHT22;10499;47.494;7.608;2022-07-18T09:45:50;47.50;25.70
20680;DHT22;10499;47.494;7.608;2022-07-18T09:48:23;48.10;25.20
20680;DHT22;10499;47.494;7.608;2022-07-18T09:51:04;48.70;24.50
20680;DHT22;10499;47.494;7.608;2022-07-18T09:53:41;49.20;24.70
20680;DHT22;10499;47.494;7.608;2022-07-18T09:56:11;49.60;24.40
20680;DHT22;10499;47.494;7.608;2022-07-18T09:58:51;50.00;24.00
20680;DHT22;10499;47.494;7.608;2022-07-18T10:01:17;50.30;23.70
20680;DHT22;10499;47.494;7.608;2022-07-18T10:03:43;50.20;23.20
20680;DHT22;10499;47.494;7.608;2022-07-18T10:06:09;50.40;23.40
20680;DHT22;10499;47.494;7.608;2022-07-18T10:08:36;50.50;22.60
20680;DHT22;10499;47.494;7.608;2022-07-18T10:11:04;50.60;22.40
20680;DHT22;10499;47.494;7.608;2022-07-18T10:13:35;50.80;22.80
20680;DHT22;10499;47.494;7.608;2022-07-18T10:16:05;51.00;22.80
20680;DHT22;10499;47.494;7.608;2022-07-18T10:18:33;51.20;22.40
20680;DHT22;10499;47.494;7.608;2022-07-18T10:31:38;51.70;21.50
20680;DHT22;10499;47.494;7.608;2022-07-18T10:39:09;52.00;21.50
20680;DHT22;10499;47.494;7.608;2022-07-18T10:47:11;52.90;20.90
20680;DHT22;10499;47.494;7.608;2022-07-18T10:57:35;53.40;20.00
20680;DHT22;10499;47.494;7.608;2022-07-18T11:16:04;54.60;19.20
20680;DHT22;10499;47.494;7.608;2022-07-18T11:23:49;54.70;19.40
20680;DHT22;10499;47.494;7.608;2022-07-18T11:26:18;54.80;19.90
20680;DHT22;10499;47.494;7.608;2022-07-18T11:28:44;54.90;19.60
20680;DHT22;10499;47.494;7.608;2022-07-18T11:31:12;55.10;18.80
20680;DHT22;10499;47.494;7.608;2022-07-18T11:33:40;55.50;19.20
20680;DHT22;10499;47.494;7.608;2022-07-18T11:36:09;55.40;19.10
20680;DHT22;10499;47.494;7.608;2022-07-18T11:38:39;55.30;18.70
20680;DHT22;10499;47.494;7.608;2022-07-18T11:41:05;55.20;19.20
20680;DHT22;10499;47.494;7.608;2022-07-18T11:43:33;55.20;18.80
20680;DHT22;10499;47.494;7.608;2022-07-18T11:46:24;55.40;19.30
20680;DHT22;10499;47.494;7.608;2022-07-18T11:49:02;55.30;19.30
20680;DHT22;10499;47.494;7.608;2022-07-18T11:54:01;55.10;19.10
20680;DHT22;10499;47.494;7.608;2022-07-18T11:56:27;54.80;19.00
20680;DHT22;10499;47.494;7.608;2022-07-18T11:58:53;54.60;19.50
20680;DHT22;10499;47.494;7.608;2022-07-18T12:01:19;54.50;19.60
20680;DHT22;10499;47.494;7.608;2022-07-18T12:03:47;54.40;19.40
20680;DHT22;10499;47.494;7.608;2022-07-18T12:06:15;54.30;20.00
20680;DHT22;10499;47.494;7.608;2022-07-18T12:08:43;54.10;19.90
20680;DHT22;10499;47.494;7.608;2022-07-18T12:11:29;53.90;19.20
20680;DHT22;10499;47.494;7.608;2022-07-18T12:16:39;54.20;20.90
20680;DHT22;10499;47.494;7.608;2022-07-18T12:19:18;54.40;19.60
20680;DHT22;10499;47.494;7.608;2022-07-18T12:24:33;53.80;20.00
20680;DHT22;10499;47.494;7.608;2022-07-18T12:35:30;53.00;20.70
20680;DHT22;10499;47.494;7.608;2022-07-18T12:43:14;51.60;19.70
20680;DHT22;10499;47.494;7.608;2022-07-18T12:45:43;50.60;21.00
20680;DHT22;10499;47.494;7.608;2022-07-18T12:48:12;50.40;21.60
20680;DHT22;10499;47.494;7.608;2022-07-18T12:50:38;50.20;21.30
20680;DHT22;10499;47.494;7.608;2022-07-18T12:53:05;49.70;21.00
20680;DHT22;10499;47.494;7.608;2022-07-18T12:55:31;49.40;21.10
20680;DHT22;10499;47.494;7.608;2022-07-18T12:57:57;48.80;21.50
20680;DHT22;10499;47.494;7.608;2022-07-18T13:00:23;48.40;21.80
20680;DHT22;10499;47.494;7.608;2022-07-18T13:02:48;48.00;21.30
20680;DHT22;10499;47.494;7.608;2022-07-18T13:05:22;47.30;21.90
20680;DHT22;10499;47.494;7.608;2022-07-18T13:07:47;46.40;22.90
20680;DHT22;10499;47.494;7.608;2022-07-18T13:10:13;45.80;23.10
20680;DHT22;10499;47.494;7.608;2022-07-18T13:12:39;45.20;22.90
20680;DHT22;10499;47.494;7.608;2022-07-18T13:15:05;44.60;23.50
20680;DHT22;10499;47.494;7.608;2022-07-18T13:17:31;44.10;24.30
20680;DHT22;10499;47.494;7.608;2022-07-18T13:19:56;43.70;24.10
20680;DHT22;10499;47.494;7.608;2022-07-18T13:22:22;43.50;25.20
20680;DHT22;10499;47.494;7.608;2022-07-18T13:24:48;43.10;25.80
20680;DHT22;10499;47.494;7.608;2022-07-18T13:27:13;42.90;26.00
20680;DHT22;10499;47.494;7.608;2022-07-18T13:29:39;42.60;26.40
20680;DHT22;10499;47.494;7.608;2022-07-18T13:32:05;42.30;26.60
20680;DHT22;10499;47.494;7.608;2022-07-18T13:34:30;42.00;26.50
20680;DHT22;10499;47.494;7.608;2022-07-18T13:36:56;41.80;27.20
20680;DHT22;10499;47.494;7.608;2022-07-18T13:39:22;41.50;26.90
20680;DHT22;10499;47.494;7.608;2022-07-18T13:41:48;41.30;26.40
20680;DHT22;10499;47.494;7.608;2022-07-18T13:44:16;41.10;27.40
20680;DHT22;10499;47.494;7.608;2022-07-18T13:46:42;40.90;27.00
20680;DHT22;10499;47.494;7.608;2022-07-18T13:49:09;40.80;27.90
20680;DHT22;10499;47.494;7.608;2022-07-18T13:51:35;40.70;26.90
20680;DHT22;10499;47.494;7.608;2022-07-18T13:54:03;40.60;27.60
20680;DHT22;10499;47.494;7.608;2022-07-18T13:56:28;40.50;26.90
20680;DHT22;10499;47.494;7.608;2022-07-18T13:58:54;40.40;27.20
20680;DHT22;10499;47.494;7.608;2022-07-18T14:01:20;40.30;28.00
20680;DHT22;10499;47.494;7.608;2022-07-18T14:03:48;40.20;28.20
20680;DHT22;10499;47.494;7.608;2022-07-18T14:06:13;40.20;28.00
20680;DHT22;10499;47.494;7.608;2022-07-18T14:08:39;40.10;27.00
20680;DHT22;10499;47.494;7.608;2022-07-18T14:11:05;40.00;28.10
20680;DHT22;10499;47.494;7.608;2022-07-18T14:13:32;40.00;27.80
20680;DHT22;10499;47.494;7.608;2022-07-18T14:15:58;39.90;28.80
20680;DHT22;10499;47.494;7.608;2022-07-18T14:18:24;39.90;28.60
20680;DHT22;10499;47.494;7.608;2022-07-18T14:20:49;39.80;28.60
20680;DHT22;10499;47.494;7.608;2022-07-18T14:23:15;39.70;28.80
20680;DHT22;10499;47.494;7.608;2022-07-18T14:25:48;39.50;28.90
20680;DHT22;10499;47.494;7.608;2022-07-18T14:28:14;39.40;28.80
20680;DHT22;10499;47.494;7.608;2022-07-18T14:30:39;39.40;29.40
20680;DHT22;10499;47.494;7.608;2022-07-18T14:33:05;39.30;29.70
20680;DHT22;10499;47.494;7.608;2022-07-18T14:35:31;39.10;28.50
20680;DHT22;10499;47.494;7.608;2022-07-18T14:37:59;39.10;29.10
20680;DHT22;10499;47.494;7.608;2022-07-18T14:40:25;39.10;29.50
20680;DHT22;10499;47.494;7.608;2022-07-18T14:42:51;39.10;29.70
20680;DHT22;10499;47.494;7.608;2022-07-18T14:45:17;39.00;29.90
20680;DHT22;10499;47.494;7.608;2022-07-18T14:47:42;38.90;28.80
20680;DHT22;10499;47.494;7.608;2022-07-18T14:50:09;38.80;29.70
20680;DHT22;10499;47.494;7.608;2022-07-18T14:52:36;38.70;28.80
20680;DHT22;10499;47.494;7.608;2022-07-18T14:55:02;38.50;30.20
20680;DHT22;10499;47.494;7.608;2022-07-18T14:57:28;38.40;29.40
20680;DHT22;10499;47.494;7.608;2022-07-18T14:59:54;38.30;30.60
20680;DHT22;10499;47.494;7.608;2022-07-18T15:02:19;38.20;30.90
20680;DHT22;10499;47.494;7.608;2022-07-18T15:04:45;38.10;29.30
20680;DHT22;10499;47.494;7.608;2022-07-18T15:07:11;37.90;30.50
20680;DHT22;10499;47.494;7.608;2022-07-18T15:09:37;37.80;30.30
20680;DHT22;10499;47.494;7.608;2022-07-18T15:12:02;37.80;30.40
20680;DHT22;10499;47.494;7.608;2022-07-18T15:14:28;37.80;31.80
20680;DHT22;10499;47.494;7.608;2022-07-18T15:16:54;37.70;31.40
20680;DHT22;10499;47.494;7.608;2022-07-18T15:19:19;37.60;31.20
20680;DHT22;10499;47.494;7.608;2022-07-18T15:21:45;37.60;32.10
20680;DHT22;10499;47.494;7.608;2022-07-18T15:24:10;37.50;32.50
20680;DHT22;10499;47.494;7.608;2022-07-18T15:26:36;37.30;32.30
20680;DHT22;10499;47.494;7.608;2022-07-18T15:29:02;37.20;32.10
20680;DHT22;10499;47.494;7.608;2022-07-18T15:31:27;37.00;32.10
20680;DHT22;10499;47.494;7.608;2022-07-18T15:33:53;37.00;32.50
20680;DHT22;10499;47.494;7.608;2022-07-18T15:36:19;36.90;32.80
20680;DHT22;10499;47.494;7.608;2022-07-18T15:38:45;36.90;32.70
20680;DHT22;10499;47.494;7.608;2022-07-18T15:41:11;36.80;32.00
20680;DHT22;10499;47.494;7.608;2022-07-18T15:43:39;36.80;33.00
20680;DHT22;10499;47.494;7.608;2022-07-18T15:46:05;36.80;32.50
20680;DHT22;10499;47.494;7.608;2022-07-18T15:48:31;36.70;33.10
20680;DHT22;10499;47.494;7.608;2022-07-18T15:50:56;36.60;33.10
20680;DHT22;10499;47.494;7.608;2022-07-18T15:53:22;36.60;33.00
20680;DHT22;10499;47.494;7.608;2022-07-18T15:55:48;36.50;32.70
20680;DHT22;10499;47.494;7.608;2022-07-18T15:58:13;36.40;32.80
20680;DHT22;10499;47.494;7.608;2022-07-18T16:00:39;36.30;34.30
20680;DHT22;10499;47.494;7.608;2022-07-18T16:03:05;36.30;34.50
20680;DHT22;10499;47.494;7.608;2022-07-18T16:05:31;36.20;34.40
20680;DHT22;10499;47.494;7.608;2022-07-18T16:07:56;36.10;34.60
20680;DHT22;10499;47.494;7.608;2022-07-18T16:10:27;36.00;34.90
20680;DHT22;10499;47.494;7.608;2022-07-18T16:12:52;35.90;35.10
20680;DHT22;10499;47.494;7.608;2022-07-18T16:15:18;35.80;34.20
20680;DHT22;10499;47.494;7.608;2022-07-18T16:17:44;35.80;34.30
20680;DHT22;10499;47.494;7.608;2022-07-18T16:20:09;35.80;34.70
20680;DHT22;10499;47.494;7.608;2022-07-18T16:22:35;35.80;35.60
20680;DHT22;10499;47.494;7.608;2022-07-18T16:25:01;35.60;35.30
20680;DHT22;10499;47.494;7.608;2022-07-18T16:27:26;35.60;36.30
20680;DHT22;10499;47.494;7.608;2022-07-18T16:29:54;35.50;34.00
20680;DHT22;10499;47.494;7.608;2022-07-18T16:32:20;35.40;36.00
20680;DHT22;10499;47.494;7.608;2022-07-18T16:34:45;35.30;35.20
20680;DHT22;10499;47.494;7.608;2022-07-18T16:37:11;35.10;36.50
20680;DHT22;10499;47.494;7.608;2022-07-18T16:39:37;35.10;37.10
20680;DHT22;10499;47.494;7.608;2022-07-18T16:42:02;35.00;36.30
20680;DHT22;10499;47.494;7.608;2022-07-18T16:44:28;35.00;36.10